Escuta Aérea – Aeroporto Internacional de Fortaleza

METAR: 

SBFZ 251700Z 08019KT 9999 FEW025 30/17 Q1012

TAF: 

TAF TAF SBFZ 251530Z 2518/2618 12012KT 9999 FEW020 TN24/2608Z TX30/2614Z BECMG 2605/2607 15007KT BECMG 2610/2612 12015KT RMK PCH

A escuta poderá ser executada automaticamente